createdAt,value
2019-04-29T00:01:15.360Z,74.54
2019-04-29T00:03:42.402Z,73.67
2019-04-29T00:06:09.376Z,73.77
2019-04-29T00:08:36.361Z,74.17
2019-04-29T00:11:03.368Z,74.47
2019-04-29T00:13:30.348Z,74.55
2019-04-29T00:16:01.339Z,74.82
2019-04-29T00:18:29.187Z,74.81
2019-04-29T00:20:56.191Z,74.47
2019-04-29T00:23:23.179Z,74.23
2019-04-29T00:25:50.223Z,74.20
2019-04-29T00:28:17.242Z,74.23
2019-04-29T00:30:44.286Z,74.29
2019-04-29T00:33:11.766Z,74.10
2019-04-29T00:35:38.764Z,73.85
2019-04-29T00:38:16.662Z,73.21
2019-04-29T00:40:49.262Z,72.71
2019-04-29T00:43:22.050Z,72.45
2019-04-29T00:45:49.042Z,72.43
2019-04-29T00:48:16.043Z,72.78
2019-04-29T00:50:43.035Z,73.06
2019-04-29T00:53:10.070Z,73.40
2019-04-29T00:55:37.117Z,73.82
2019-04-29T00:58:04.099Z,74.05
2019-04-29T01:00:33.547Z,74.22
2019-04-29T01:03:00.598Z,74.14
2019-04-29T01:05:27.654Z,74.16
2019-04-29T01:07:54.720Z,74.22
2019-04-29T01:10:21.750Z,74.33
2019-04-29T01:12:48.779Z,74.70
2019-04-29T01:15:15.794Z,74.68
2019-04-29T01:17:42.828Z,74.48
2019-04-29T01:20:09.822Z,74.63
2019-04-29T01:22:36.866Z,74.82
2019-04-29T01:25:03.894Z,74.43
2019-04-29T01:27:30.931Z,74.48
2019-04-29T01:29:59.083Z,74.14
2019-04-29T01:32:26.085Z,74.15
2019-04-29T01:34:53.136Z,73.97
2019-04-29T01:37:20.147Z,73.84
2019-04-29T01:39:52.761Z,73.65
2019-04-29T01:42:19.969Z,73.70
2019-04-29T01:44:46.984Z,73.60
2019-04-29T01:47:14.125Z,73.19
2019-04-29T01:49:41.112Z,72.58
2019-04-29T01:52:08.166Z,72.19
2019-04-29T01:54:35.151Z,72.00
2019-04-29T01:57:02.160Z,72.14
2019-04-29T01:59:29.302Z,72.15
2019-04-29T02:01:56.290Z,72.02
2019-04-29T02:04:23.384Z,71.75
2019-04-29T02:06:50.370Z,71.90
2019-04-29T02:09:17.387Z,71.84
2019-04-29T02:11:44.397Z,71.42
2019-04-29T02:14:11.391Z,71.51
2019-04-29T02:16:38.374Z,72.07
2019-04-29T02:19:05.435Z,72.43
2019-04-29T02:21:32.414Z,72.45
2019-04-29T02:24:17.058Z,72.52
2019-04-29T02:26:44.103Z,72.46
2019-04-29T02:29:11.077Z,72.41
2019-04-29T02:31:38.090Z,72.45
2019-04-29T02:34:05.172Z,72.43
2019-04-29T02:36:32.157Z,72.62
2019-04-29T02:39:16.184Z,72.92
2019-04-29T02:41:43.223Z,72.83
2019-04-29T02:44:10.241Z,72.95
2019-04-29T02:46:37.318Z,72.90
2019-04-29T02:49:04.335Z,73.05
2019-04-29T02:51:37.134Z,73.46
2019-04-29T02:54:04.219Z,73.60
2019-04-29T02:56:31.233Z,73.82
2019-04-29T02:58:58.252Z,73.93
2019-04-29T03:01:35.460Z,73.69
2019-04-29T03:04:05.216Z,73.50
2019-04-29T03:06:32.380Z,73.62
2019-04-29T03:08:59.599Z,73.82
2019-04-29T03:11:26.730Z,73.88
2019-04-29T03:13:53.806Z,74.15
2019-04-29T03:18:59.434Z,75.20
2019-04-29T03:21:41.529Z,75.55
2019-04-29T03:24:08.778Z,75.84
2019-04-29T03:29:24.956Z,75.99
2019-04-29T03:31:51.948Z,75.80
2019-04-29T03:34:19.110Z,75.85
2019-04-29T03:36:46.180Z,75.90
2019-04-29T03:39:14.097Z,75.93
2019-04-29T03:41:41.091Z,76.13
2019-04-29T03:44:08.100Z,76.18
2019-04-29T03:46:35.127Z,76.21
2019-04-29T03:49:02.146Z,76.43
2019-04-29T03:51:29.673Z,76.39
2019-04-29T03:53:57.106Z,76.57
2019-04-29T03:56:24.551Z,76.68
2019-04-29T03:58:51.531Z,76.81
2019-04-29T04:01:30.706Z,76.83
2019-04-29T04:03:59.075Z,76.96
2019-04-29T04:06:28.089Z,76.99
2019-04-29T04:09:05.320Z,76.78
2019-04-29T04:11:22.732Z,76.82
2019-04-29T04:13:49.918Z,76.78
2019-04-29T04:16:17.477Z,76.57
2019-04-29T04:18:44.459Z,76.34
2019-04-29T04:21:11.503Z,75.84
2019-04-29T04:23:38.493Z,75.28
2019-04-29T04:26:05.614Z,75.24
2019-04-29T04:28:32.612Z,75.14
2019-04-29T04:30:59.848Z,75.32
2019-04-29T04:33:26.875Z,75.34
2019-04-29T04:35:54.493Z,75.70
2019-04-29T04:38:21.526Z,75.92
2019-04-29T04:40:51.767Z,75.96
2019-04-29T04:43:19.285Z,76.30
2019-04-29T04:45:46.300Z,76.30
2019-04-29T04:48:13.332Z,76.19
2019-04-29T04:50:40.504Z,76.27
2019-04-29T04:53:07.787Z,76.38
2019-04-29T04:55:34.974Z,76.43
2019-04-29T04:58:02.116Z,76.11
2019-04-29T05:00:29.102Z,76.03
2019-04-29T05:02:56.090Z,76.14
2019-04-29T05:05:23.097Z,76.48
2019-04-29T05:07:50.075Z,76.47
2019-04-29T05:10:17.105Z,76.40
2019-04-29T05:12:44.101Z,76.16
2019-04-29T05:15:11.105Z,76.00
2019-04-29T05:17:38.084Z,75.44
2019-04-29T05:20:05.101Z,75.47
2019-04-29T05:22:32.106Z,75.54
2019-04-29T05:24:59.091Z,75.25
2019-04-29T05:27:26.075Z,74.87
2019-04-29T05:29:53.280Z,75.15
2019-04-29T05:32:20.278Z,75.11
2019-04-29T05:34:48.252Z,74.32
2019-04-29T05:37:16.743Z,73.73
2019-04-29T05:39:43.796Z,73.43
2019-04-29T05:42:16.231Z,73.18
2019-04-29T05:44:38.643Z,73.24
2019-04-29T05:50:06.428Z,71.64
2019-04-29T05:52:34.665Z,71.38
2019-04-29T05:55:01.583Z,71.45
2019-04-29T05:57:27.119Z,71.68
2019-04-29T05:59:54.634Z,71.69
2019-04-29T06:02:24.016Z,71.60
2019-04-29T06:04:52.345Z,71.48
2019-04-29T06:07:21.440Z,71.38
2019-04-29T06:09:43.895Z,71.25
2019-04-29T06:12:11.369Z,71.09
2019-04-29T06:14:38.419Z,70.95
2019-04-29T06:17:07.735Z,70.90
2019-04-29T06:19:35.206Z,70.33
2019-04-29T06:21:59.914Z,69.38
2019-04-29T06:24:26.945Z,68.79
2019-04-29T06:26:53.927Z,68.07
2019-04-29T06:29:20.923Z,67.58
2019-04-29T06:31:47.921Z,67.23
2019-04-29T06:34:14.952Z,67.26
2019-04-29T06:36:41.948Z,67.22
2019-04-29T06:39:08.951Z,67.88
2019-04-29T06:44:16.591Z,66.94
2019-04-29T06:46:38.990Z,66.26
2019-04-29T06:49:10.304Z,64.95
2019-04-29T06:51:33.141Z,64.64
2019-04-29T06:54:00.255Z,64.26
2019-04-29T06:56:27.377Z,63.46
2019-04-29T06:58:54.443Z,62.88
2019-04-29T07:01:21.471Z,62.79
2019-04-29T07:03:48.475Z,62.82
2019-04-29T07:06:15.478Z,62.77
2019-04-29T07:08:42.480Z,61.85
2019-04-29T07:11:09.526Z,61.62
2019-04-29T07:13:36.633Z,61.25
2019-04-29T07:16:03.719Z,61.29
2019-04-29T07:18:30.765Z,61.55
2019-04-29T07:20:57.750Z,61.42
2019-04-29T07:23:24.797Z,59.48
2019-04-29T07:25:52.714Z,58.24
2019-04-29T08:28:59.939Z,55.12
2019-04-29T08:31:21.039Z,54.60
2019-04-29T08:33:48.545Z,55.10
2019-04-29T08:36:14.092Z,55.70
2019-04-29T08:38:41.295Z,55.95
2019-04-29T08:41:08.311Z,55.58
2019-04-29T08:43:37.102Z,55.56
2019-04-29T08:46:07.767Z,56.04
